Tropical Cyclones
[Index]
Main Index Home Page Stock Weather Photos Extreme Storms Discussion Storm News and Storm Chasing Reports Tropical Cyclones / Hurricanes / Typhoons Weather Data and Links Wild Fires / Bushfires Weather Observation Techniques Weather Picture Catalogue Tornado Pictures and Reports Stock Video Footage and DVDs for sale
Season 2016-2017 Tropical Cyclone FRANCES Track Map
Season 2016-2017 Summaries (Operational Data): [AU] [SIO] [SPAC] [SH]
<<- Previous TC | 2016-2017 Season | Next TC ->>

click for intensity scale information  Lat/long Grid: Show Hide

 Date Labels: Show Hide

Operational Tropical Cyclone Data : JTWC Advisories

Name: FRANCES
Number: 1717

20 Apr 2017 18:00 UTC to 01 May 2017 12:00 UTC

    date/time    lat    long     hPa   cat  kts
2017-04-20 18    9.0   146.3    1010         15          
2017-04-21 00    9.0   144.9    1010         15          
2017-04-21 06    9.0   143.6    1010         15          
2017-04-21 12    9.0   142.4    1010         15          
2017-04-21 18    9.0   141.2    1010         15          
2017-04-22 00    8.3   139.9    1010         15          
2017-04-22 06    8.3   139.4    1010         15          
2017-04-22 12    8.3   138.9    1010         15          
2017-04-22 18    8.3   138.4    1007         15          
2017-04-23 00    8.7   139.1    1009         15          
2017-04-23 06    8.7   138.4    1010         15          
2017-04-23 12    8.8   137.7    1010         15          
2017-04-23 18    8.9   137.0    1007         20          
2017-04-24 00    9.0   136.3    1007         20          
2017-04-24 06    9.1   135.7    1007         20          
2017-04-24 12    8.5   135.0    1007         20          
2017-04-24 18    8.4   134.6    1007         20          
2017-04-25 00    7.8   133.7    1007         20          
2017-04-25 06    7.5   133.2    1007         20          
2017-04-25 12    7.5   132.9    1003         20          
2017-04-25 18    7.7   132.5    1004         25          
2017-04-26 00    7.9   132.2    1004         30          
2017-04-26 06    8.1   131.8    1000         30          
2017-04-26 12    8.5   131.2    1000         30          
2017-04-26 18    9.0   130.6    1005         30          
2017-04-27 00    9.7   130.1    1005    1    35          
2017-04-27 06   10.3   129.3    1004    1    40          
2017-04-27 12   10.6   128.3     999    1    45          
2017-04-27 18   11.0   127.5     996    2    50          
2017-04-28 00   11.5   126.4     994    2    55          
2017-04-28 06   11.9   125.5     978    2    60          
2017-04-28 12   12.1   125.0     970    3    70          
2017-04-28 18   12.5   124.3     983    3    70          
2017-04-29 00   12.8   123.8     985    3    70          
2017-04-29 06   13.1   123.4     990    3    65          
2017-04-29 12   13.1   123.2     993    2    60          
2017-04-29 18   13.2   122.6    1002    1    45          
2017-04-30 00   13.5   122.2                             
2017-04-30 06   13.4   121.9                             
2017-04-30 12   13.4   121.9                             
2017-04-30 18   13.6   122.0                             
2017-05-01 00   13.8   121.9                             
2017-05-01 06   13.9   121.4                             
2017-05-01 12   13.9   121.0                             
Winds are 10-min average.

Tropical cyclone tracks developed by Michael Bath using operational warnings and advisories and Google Maps.


[Australian Severe Weather index] [Copyright Notice] [Email Contacts] [Search This Site] [Privacy Policy]
Document: tropical_cyclone_frances.htm Updated: 4 July 2017